sensor_id;sensor_type;location;lat;lon;timestamp;pressure;altitude;pressure_sealevel;temperature;humidity
12213;BME280;6169;44.158;22.788;2023-03-13T00:02:46;101559.44;;;4.24;42.78
12213;BME280;6169;44.158;22.788;2023-03-13T00:07:49;101562.34;;;4.06;43.33
12213;BME280;6169;44.158;22.788;2023-03-13T00:12:52;101554.25;;;4.14;43.49
12213;BME280;6169;44.158;22.788;2023-03-13T00:17:55;101570.78;;;3.86;43.63
12213;BME280;6169;44.158;22.788;2023-03-13T00:22:57;101575.69;;;3.66;44.21
12213;BME280;6169;44.158;22.788;2023-03-13T00:27:59;101568.66;;;3.65;44.46
12213;BME280;6169;44.158;22.788;2023-03-13T00:33:03;101578.38;;;3.66;44.26
12213;BME280;6169;44.158;22.788;2023-03-13T00:38:05;101543.25;;;3.35;44.85
12213;BME280;6169;44.158;22.788;2023-03-13T00:43:07;101574.00;;;3.73;44.03
12213;BME280;6169;44.158;22.788;2023-03-13T00:48:11;101559.56;;;3.42;44.07
12213;BME280;6169;44.158;22.788;2023-03-13T00:53:13;101570.66;;;3.47;44.27
12213;BME280;6169;44.158;22.788;2023-03-13T00:58:15;101563.41;;;3.64;43.79
12213;BME280;6169;44.158;22.788;2023-03-13T01:03:20;101563.09;;;3.59;43.58
12213;BME280;6169;44.158;22.788;2023-03-13T01:08:24;101495.91;;;3.18;43.50
12213;BME280;6169;44.158;22.788;2023-03-13T01:13:27;101546.81;;;3.52;43.21
12213;BME280;6169;44.158;22.788;2023-03-13T01:18:32;101496.22;;;3.31;43.81
12213;BME280;6169;44.158;22.788;2023-03-13T01:23:34;101539.41;;;3.46;44.30
12213;BME280;6169;44.158;22.788;2023-03-13T01:28:36;101547.78;;;3.18;45.08
12213;BME280;6169;44.158;22.788;2023-03-13T01:33:40;101550.03;;;3.39;44.22
12213;BME280;6169;44.158;22.788;2023-03-13T01:38:42;101559.56;;;3.17;44.94
12213;BME280;6169;44.158;22.788;2023-03-13T01:43:45;101559.88;;;3.06;45.64
12213;BME280;6169;44.158;22.788;2023-03-13T01:48:51;101558.22;;;3.38;44.08
12213;BME280;6169;44.158;22.788;2023-03-13T01:54:00;101570.94;;;3.19;44.75
12213;BME280;6169;44.158;22.788;2023-03-13T01:59:05;101569.13;;;3.12;44.17
12213;BME280;6169;44.158;22.788;2023-03-13T02:04:11;101569.13;;;3.12;44.79
12213;BME280;6169;44.158;22.788;2023-03-13T02:09:18;101580.00;;;3.10;44.61
12213;BME280;6169;44.158;22.788;2023-03-13T02:14:26;101587.91;;;3.03;44.09
12213;BME280;6169;44.158;22.788;2023-03-13T02:19:36;101602.03;;;3.05;44.39
12213;BME280;6169;44.158;22.788;2023-03-13T02:24:44;101624.28;;;2.81;45.06
12213;BME280;6169;44.158;22.788;2023-03-13T02:29:51;101644.41;;;2.77;44.90
12213;BME280;6169;44.158;22.788;2023-03-13T02:34:56;101657.19;;;2.83;45.19
12213;BME280;6169;44.158;22.788;2023-03-13T02:40:03;101678.59;;;2.67;44.66
12213;BME280;6169;44.158;22.788;2023-03-13T02:45:12;101688.91;;;2.88;44.60
12213;BME280;6169;44.158;22.788;2023-03-13T02:50:16;101700.22;;;2.92;44.53
12213;BME280;6169;44.158;22.788;2023-03-13T02:55:21;101717.38;;;3.07;44.16
12213;BME280;6169;44.158;22.788;2023-03-13T03:00:26;101712.91;;;2.81;44.73
12213;BME280;6169;44.158;22.788;2023-03-13T03:05:29;101725.31;;;3.25;43.21
12213;BME280;6169;44.158;22.788;2023-03-13T03:10:31;101733.50;;;2.73;45.82
12213;BME280;6169;44.158;22.788;2023-03-13T03:15:34;101731.66;;;2.73;45.45
12213;BME280;6169;44.158;22.788;2023-03-13T03:20:36;101728.06;;;2.30;45.25
12213;BME280;6169;44.158;22.788;2023-03-13T03:25:39;101737.13;;;2.55;45.28
12213;BME280;6169;44.158;22.788;2023-03-13T03:30:42;101731.16;;;2.44;45.89
12213;BME280;6169;44.158;22.788;2023-03-13T03:35:44;101737.34;;;2.70;44.84
12213;BME280;6169;44.158;22.788;2023-03-13T03:40:46;101745.22;;;2.98;44.39
12213;BME280;6169;44.158;22.788;2023-03-13T03:45:50;101749.47;;;3.08;44.00
12213;BME280;6169;44.158;22.788;2023-03-13T03:50:52;101753.97;;;3.08;43.56
12213;BME280;6169;44.158;22.788;2023-03-13T03:55:54;101783.59;;;3.24;43.29
12213;BME280;6169;44.158;22.788;2023-03-13T04:00:58;101778.53;;;3.13;42.43
12213;BME280;6169;44.158;22.788;2023-03-13T04:06:00;101792.22;;;3.28;42.31
12213;BME280;6169;44.158;22.788;2023-03-13T04:11:02;101788.25;;;3.06;43.75
12213;BME280;6169;44.158;22.788;2023-03-13T04:16:08;101789.28;;;3.13;43.03
12213;BME280;6169;44.158;22.788;2023-03-13T04:21:10;101789.16;;;2.89;44.37
12213;BME280;6169;44.158;22.788;2023-03-13T04:26:12;101779.78;;;3.35;43.94
12213;BME280;6169;44.158;22.788;2023-03-13T04:31:16;101765.75;;;3.07;44.56
12213;BME280;6169;44.158;22.788;2023-03-13T04:36:18;101759.91;;;2.77;44.10
12213;BME280;6169;44.158;22.788;2023-03-13T04:41:20;101761.25;;;2.81;44.53
12213;BME280;6169;44.158;22.788;2023-03-13T04:46:24;101764.69;;;2.92;43.97
12213;BME280;6169;44.158;22.788;2023-03-13T04:51:26;101760.03;;;2.76;44.74
12213;BME280;6169;44.158;22.788;2023-03-13T04:56:29;101764.94;;;3.15;44.37
12213;BME280;6169;44.158;22.788;2023-03-13T05:01:33;101760.94;;;2.84;44.37
12213;BME280;6169;44.158;22.788;2023-03-13T05:06:35;101765.94;;;3.14;43.68
12213;BME280;6169;44.158;22.788;2023-03-13T05:11:37;101765.50;;;2.92;44.15
12213;BME280;6169;44.158;22.788;2023-03-13T05:16:43;101774.81;;;2.28;46.41
12213;BME280;6169;44.158;22.788;2023-03-13T05:21:45;101761.13;;;2.91;44.58
12213;BME280;6169;44.158;22.788;2023-03-13T05:26:47;101778.09;;;3.26;44.59
12213;BME280;6169;44.158;22.788;2023-03-13T05:31:51;101789.28;;;3.56;43.98
12213;BME280;6169;44.158;22.788;2023-03-13T05:36:53;101793.94;;;3.96;43.03
12213;BME280;6169;44.158;22.788;2023-03-13T05:41:55;101801.34;;;4.02;44.09
12213;BME280;6169;44.158;22.788;2023-03-13T05:46:59;101802.69;;;4.31;43.21
12213;BME280;6169;44.158;22.788;2023-03-13T05:52:01;101795.59;;;4.62;43.07
12213;BME280;6169;44.158;22.788;2023-03-13T05:57:03;101774.09;;;5.02;41.96
12213;BME280;6169;44.158;22.788;2023-03-13T06:02:07;101784.47;;;5.21;41.84
12213;BME280;6169;44.158;22.788;2023-03-13T06:07:09;101790.09;;;5.12;41.88
12213;BME280;6169;44.158;22.788;2023-03-13T06:12:11;101790.84;;;5.45;41.85
12213;BME280;6169;44.158;22.788;2023-03-13T06:17:15;101780.66;;;5.55;41.10
12213;BME280;6169;44.158;22.788;2023-03-13T06:22:17;101791.91;;;5.59;41.30
12213;BME280;6169;44.158;22.788;2023-03-13T06:27:20;101797.56;;;5.72;40.98
12213;BME280;6169;44.158;22.788;2023-03-13T06:32:23;101818.44;;;5.78;40.53
12213;BME280;6169;44.158;22.788;2023-03-13T06:37:25;101827.09;;;5.73;41.15
12213;BME280;6169;44.158;22.788;2023-03-13T06:42:28;101839.41;;;5.76;41.14
12213;BME280;6169;44.158;22.788;2023-03-13T06:47:31;101853.25;;;5.73;40.32
12213;BME280;6169;44.158;22.788;2023-03-13T06:52:34;101856.03;;;5.48;40.82
12213;BME280;6169;44.158;22.788;2023-03-13T06:57:37;101871.72;;;6.15;40.02
12213;BME280;6169;44.158;22.788;2023-03-13T07:02:41;101859.94;;;5.77;39.92
12213;BME280;6169;44.158;22.788;2023-03-13T07:07:43;101873.94;;;5.41;40.45
12213;BME280;6169;44.158;22.788;2023-03-13T07:12:45;101880.13;;;5.89;40.28
12213;BME280;6169;44.158;22.788;2023-03-13T07:17:49;101873.78;;;6.05;39.76
12213;BME280;6169;44.158;22.788;2023-03-13T07:22:51;101860.84;;;6.84;38.33
12213;BME280;6169;44.158;22.788;2023-03-13T07:27:54;101884.34;;;6.84;37.86
12213;BME280;6169;44.158;22.788;2023-03-13T07:32:58;101884.88;;;7.02;38.05
12213;BME280;6169;44.158;22.788;2023-03-13T07:38:01;101879.47;;;7.02;38.14
12213;BME280;6169;44.158;22.788;2023-03-13T07:43:03;101882.63;;;7.65;37.46
12213;BME280;6169;44.158;22.788;2023-03-13T07:48:06;101874.16;;;7.53;37.24
12213;BME280;6169;44.158;22.788;2023-03-13T07:53:09;101873.38;;;8.11;37.09
12213;BME280;6169;44.158;22.788;2023-03-13T07:58:11;101878.78;;;8.26;35.63
12213;BME280;6169;44.158;22.788;2023-03-13T08:03:14;101869.38;;;8.71;35.15
12213;BME280;6169;44.158;22.788;2023-03-13T08:08:17;101865.78;;;9.13;33.79
12213;BME280;6169;44.158;22.788;2023-03-13T08:13:19;101862.19;;;8.85;34.69
12213;BME280;6169;44.158;22.788;2023-03-13T08:18:22;101856.69;;;9.00;35.44
12213;BME280;6169;44.158;22.788;2023-03-13T08:23:25;101856.63;;;9.56;33.68
12213;BME280;6169;44.158;22.788;2023-03-13T08:28:27;101851.03;;;9.64;32.86
12213;BME280;6169;44.158;22.788;2023-03-13T08:33:30;101835.47;;;9.93;32.75
12213;BME280;6169;44.158;22.788;2023-03-13T08:38:32;101825.06;;;10.10;33.92
12213;BME280;6169;44.158;22.788;2023-03-13T08:43:35;101811.44;;;10.03;34.70
12213;BME280;6169;44.158;22.788;2023-03-13T08:48:38;101811.88;;;10.93;30.89
12213;BME280;6169;44.158;22.788;2023-03-13T08:53:42;101820.50;;;10.70;30.89
12213;BME280;6169;44.158;22.788;2023-03-13T08:58:48;101812.31;;;10.57;30.35
12213;BME280;6169;44.158;22.788;2023-03-13T09:03:52;101812.75;;;10.40;32.23
12213;BME280;6169;44.158;22.788;2023-03-13T09:08:55;101806.41;;;11.06;31.25
12213;BME280;6169;44.158;22.788;2023-03-13T09:13:58;101794.94;;;10.98;30.28
12213;BME280;6169;44.158;22.788;2023-03-13T09:19:02;101793.25;;;10.90;31.66
12213;BME280;6169;44.158;22.788;2023-03-13T09:24:05;101782.38;;;10.97;30.05
12213;BME280;6169;44.158;22.788;2023-03-13T09:29:08;101785.97;;;10.84;30.31
12213;BME280;6169;44.158;22.788;2023-03-13T09:34:12;101776.47;;;11.58;30.69
12213;BME280;6169;44.158;22.788;2023-03-13T09:39:14;101776.56;;;11.83;29.90
12213;BME280;6169;44.158;22.788;2023-03-13T09:44:19;101765.31;;;11.66;29.18
12213;BME280;6169;44.158;22.788;2023-03-13T09:49:36;101757.66;;;11.56;31.29
12213;BME280;6169;44.158;22.788;2023-03-13T09:54:41;101759.59;;;11.43;30.38
12213;BME280;6169;44.158;22.788;2023-03-13T09:59:51;101745.19;;;12.06;29.89
12213;BME280;6169;44.158;22.788;2023-03-13T10:05:02;101732.59;;;12.55;29.47
12213;BME280;6169;44.158;22.788;2023-03-13T10:10:12;101733.44;;;12.55;29.00
12213;BME280;6169;44.158;22.788;2023-03-13T10:15:27;101728.81;;;11.80;29.44
12213;BME280;6169;44.158;22.788;2023-03-13T10:20:34;101723.09;;;12.39;28.63
12213;BME280;6169;44.158;22.788;2023-03-13T10:25:37;101730.09;;;12.03;29.49
12213;BME280;6169;44.158;22.788;2023-03-13T10:30:43;101729.66;;;11.74;29.55
12213;BME280;6169;44.158;22.788;2023-03-13T10:36:03;101723.75;;;11.46;29.95
12213;BME280;6169;44.158;22.788;2023-03-13T10:41:17;101711.78;;;11.53;29.55
12213;BME280;6169;44.158;22.788;2023-03-13T10:46:25;101702.63;;;11.79;29.63
12213;BME280;6169;44.158;22.788;2023-03-13T10:51:35;101707.53;;;12.21;28.91
12213;BME280;6169;44.158;22.788;2023-03-13T10:56:37;101689.78;;;12.55;27.84
12213;BME280;6169;44.158;22.788;2023-03-13T11:01:40;101691.19;;;12.83;28.03
12213;BME280;6169;44.158;22.788;2023-03-13T11:06:50;101669.94;;;13.22;27.49
12213;BME280;6169;44.158;22.788;2023-03-13T11:11:54;101676.03;;;12.87;27.47
12213;BME280;6169;44.158;22.788;2023-03-13T11:17:03;101659.03;;;13.33;27.19
12213;BME280;6169;44.158;22.788;2023-03-13T11:22:33;101650.63;;;13.77;27.41
12213;BME280;6169;44.158;22.788;2023-03-13T11:27:45;101645.28;;;13.40;26.58
12213;BME280;6169;44.158;22.788;2023-03-13T11:32:51;101633.50;;;13.70;26.74
12213;BME280;6169;44.158;22.788;2023-03-13T11:37:57;101625.34;;;13.09;26.90
12213;BME280;6169;44.158;22.788;2023-03-13T11:43:15;101615.88;;;13.54;26.33
12213;BME280;6169;44.158;22.788;2023-03-13T11:48:45;101618.81;;;13.52;26.56
12213;BME280;6169;44.158;22.788;2023-03-13T11:59:34;101598.47;;;15.52;26.07
12213;BME280;6169;44.158;22.788;2023-03-13T12:04:44;101591.81;;;15.48;24.61
12213;BME280;6169;44.158;22.788;2023-03-13T12:09:51;101575.66;;;15.01;25.59
12213;BME280;6169;44.158;22.788;2023-03-13T12:15:13;101576.22;;;14.22;25.68
12213;BME280;6169;44.158;22.788;2023-03-13T12:20:22;101570.69;;;14.57;26.79
12213;BME280;6169;44.158;22.788;2023-03-13T12:25:29;101566.03;;;13.94;26.83
12213;BME280;6169;44.158;22.788;2023-03-13T12:30:41;101553.66;;;14.55;26.26
12213;BME280;6169;44.158;22.788;2023-03-13T12:35:50;101555.28;;;13.69;26.53
12213;BME280;6169;44.158;22.788;2023-03-13T12:41:03;101551.66;;;13.98;26.86
12213;BME280;6169;44.158;22.788;2023-03-13T12:51:55;101543.41;;;14.74;25.85
12213;BME280;6169;44.158;22.788;2023-03-13T12:57:37;101545.94;;;14.52;25.26
12213;BME280;6169;44.158;22.788;2023-03-13T13:02:47;101545.13;;;15.09;25.73
12213;BME280;6169;44.158;22.788;2023-03-13T13:08:02;101547.47;;;14.60;25.17
12213;BME280;6169;44.158;22.788;2023-03-13T13:13:27;101534.34;;;14.33;25.14
12213;BME280;6169;44.158;22.788;2023-03-13T13:18:33;101531.69;;;13.74;26.20
12213;BME280;6169;44.158;22.788;2023-03-13T13:23:36;101538.66;;;14.29;26.12
12213;BME280;6169;44.158;22.788;2023-03-13T13:28:41;101529.19;;;13.96;25.78
12213;BME280;6169;44.158;22.788;2023-03-13T13:33:45;101533.41;;;14.97;26.44
12213;BME280;6169;44.158;22.788;2023-03-13T13:38:47;101520.50;;;15.26;24.60
12213;BME280;6169;44.158;22.788;2023-03-13T13:44:24;101508.81;;;15.30;24.75
12213;BME280;6169;44.158;22.788;2023-03-13T13:49:34;101515.31;;;15.80;23.83
12213;BME280;6169;44.158;22.788;2023-03-13T13:54:55;101516.59;;;15.72;23.06
12213;BME280;6169;44.158;22.788;2023-03-13T14:00:03;101507.47;;;15.16;22.26
12213;BME280;6169;44.158;22.788;2023-03-13T14:05:14;101512.34;;;14.97;22.06
12213;BME280;6169;44.158;22.788;2023-03-13T14:10:28;101512.56;;;14.96;23.15
12213;BME280;6169;44.158;22.788;2023-03-13T14:15:33;101498.88;;;14.38;23.68
12213;BME280;6169;44.158;22.788;2023-03-13T14:20:37;101491.44;;;15.42;22.81
12213;BME280;6169;44.158;22.788;2023-03-13T14:25:43;101484.72;;;15.15;22.85
12213;BME280;6169;44.158;22.788;2023-03-13T14:30:47;101470.69;;;15.29;22.52
12213;BME280;6169;44.158;22.788;2023-03-13T14:35:52;101469.28;;;15.26;22.11
12213;BME280;6169;44.158;22.788;2023-03-13T14:40:55;101461.66;;;15.28;22.18
12213;BME280;6169;44.158;22.788;2023-03-13T14:45:58;101448.84;;;15.51;23.22
12213;BME280;6169;44.158;22.788;2023-03-13T14:51:08;101455.13;;;14.67;23.00
12213;BME280;6169;44.158;22.788;2023-03-13T14:56:14;101444.88;;;14.91;23.10
12213;BME280;6169;44.158;22.788;2023-03-13T15:01:24;101446.13;;;14.55;23.44
12213;BME280;6169;44.158;22.788;2023-03-13T15:06:29;101450.34;;;14.62;23.81
12213;BME280;6169;44.158;22.788;2023-03-13T15:11:32;101439.91;;;14.71;23.04
12213;BME280;6169;44.158;22.788;2023-03-13T15:16:34;101456.97;;;14.49;23.38
12213;BME280;6169;44.158;22.788;2023-03-13T15:21:37;101453.78;;;14.12;23.69
12213;BME280;6169;44.158;22.788;2023-03-13T15:26:40;101452.16;;;14.68;24.73
12213;BME280;6169;44.158;22.788;2023-03-13T15:31:43;101448.28;;;14.53;24.36
12213;BME280;6169;44.158;22.788;2023-03-13T15:36:47;101450.69;;;14.49;23.89
12213;BME280;6169;44.158;22.788;2023-03-13T15:41:49;101449.34;;;14.52;24.56
12213;BME280;6169;44.158;22.788;2023-03-13T15:46:51;101453.00;;;14.86;24.96
12213;BME280;6169;44.158;22.788;2023-03-13T15:51:55;101445.81;;;14.39;25.34
12213;BME280;6169;44.158;22.788;2023-03-13T15:56:58;101450.94;;;14.64;25.34
12213;BME280;6169;44.158;22.788;2023-03-13T16:02:05;101445.41;;;13.90;26.19
12213;BME280;6169;44.158;22.788;2023-03-13T16:07:15;101452.53;;;13.91;26.81
12213;BME280;6169;44.158;22.788;2023-03-13T16:12:17;101454.63;;;14.13;26.76
12213;BME280;6169;44.158;22.788;2023-03-13T16:17:20;101432.66;;;13.72;27.46
12213;BME280;6169;44.158;22.788;2023-03-13T16:22:24;101436.28;;;13.49;27.69
12213;BME280;6169;44.158;22.788;2023-03-13T16:27:26;101437.09;;;13.26;28.26
12213;BME280;6169;44.158;22.788;2023-03-13T16:32:28;101440.63;;;12.80;28.60
12213;BME280;6169;44.158;22.788;2023-03-13T16:37:32;101443.56;;;12.48;28.94
12213;BME280;6169;44.158;22.788;2023-03-13T16:42:34;101437.25;;;12.17;29.95
12213;BME280;6169;44.158;22.788;2023-03-13T16:47:36;101464.41;;;11.94;29.94
12213;BME280;6169;44.158;22.788;2023-03-13T16:52:40;101452.88;;;11.73;30.47
12213;BME280;6169;44.158;22.788;2023-03-13T16:57:42;101458.97;;;11.69;30.77
12213;BME280;6169;44.158;22.788;2023-03-13T17:02:44;101450.66;;;11.20;31.73
12213;BME280;6169;44.158;22.788;2023-03-13T17:07:49;101443.97;;;11.16;32.07
12213;BME280;6169;44.158;22.788;2023-03-13T17:12:52;101457.16;;;11.19;32.26
12213;BME280;6169;44.158;22.788;2023-03-13T17:17:54;101452.66;;;11.06;33.22
12213;BME280;6169;44.158;22.788;2023-03-13T17:22:57;101452.81;;;10.86;34.54
12213;BME280;6169;44.158;22.788;2023-03-13T17:28:00;101457.63;;;10.84;34.83
12213;BME280;6169;44.158;22.788;2023-03-13T17:33:02;101453.75;;;10.67;34.50
12213;BME280;6169;44.158;22.788;2023-03-13T17:38:08;101447.59;;;10.46;35.46
12213;BME280;6169;44.158;22.788;2023-03-13T17:43:10;101442.28;;;10.27;35.81
12213;BME280;6169;44.158;22.788;2023-03-13T17:48:14;101441.50;;;10.13;37.13
12213;BME280;6169;44.158;22.788;2023-03-13T17:53:17;101444.78;;;9.76;38.23
12213;BME280;6169;44.158;22.788;2023-03-13T17:58:19;101454.00;;;9.42;39.85
12213;BME280;6169;44.158;22.788;2023-03-13T18:03:22;101450.06;;;9.25;43.02
12213;BME280;6169;44.158;22.788;2023-03-13T18:08:25;101446.09;;;9.34;43.14
12213;BME280;6169;44.158;22.788;2023-03-13T18:13:27;101447.94;;;9.27;44.18
12213;BME280;6169;44.158;22.788;2023-03-13T18:18:30;101458.41;;;9.37;43.96
12213;BME280;6169;44.158;22.788;2023-03-13T18:23:33;101464.00;;;9.48;42.89
12213;BME280;6169;44.158;22.788;2023-03-13T18:28:36;101450.47;;;9.08;43.67
12213;BME280;6169;44.158;22.788;2023-03-13T18:33:38;101466.75;;;8.88;44.96
12213;BME280;6169;44.158;22.788;2023-03-13T18:38:43;101454.44;;;9.12;44.70
12213;BME280;6169;44.158;22.788;2023-03-13T18:43:47;101458.84;;;9.13;43.01
12213;BME280;6169;44.158;22.788;2023-03-13T18:48:50;101469.63;;;8.94;42.99
12213;BME280;6169;44.158;22.788;2023-03-13T18:53:55;101459.44;;;9.02;42.24
12213;BME280;6169;44.158;22.788;2023-03-13T18:58:57;101462.44;;;8.33;44.42
12213;BME280;6169;44.158;22.788;2023-03-13T19:04:00;101460.44;;;8.55;44.24
12213;BME280;6169;44.158;22.788;2023-03-13T19:09:11;101459.25;;;8.22;45.28
12213;BME280;6169;44.158;22.788;2023-03-13T19:14:14;101455.13;;;8.27;45.10
12213;BME280;6169;44.158;22.788;2023-03-13T19:19:17;101457.31;;;8.10;45.29
12213;BME280;6169;44.158;22.788;2023-03-13T19:24:22;101451.94;;;7.75;45.11
12213;BME280;6169;44.158;22.788;2023-03-13T19:29:26;101461.16;;;8.29;43.27
12213;BME280;6169;44.158;22.788;2023-03-13T19:34:29;101479.03;;;8.84;42.74
12213;BME280;6169;44.158;22.788;2023-03-13T19:39:33;101479.25;;;8.83;42.22
12213;BME280;6169;44.158;22.788;2023-03-13T19:44:35;101477.69;;;8.40;42.91
12213;BME280;6169;44.158;22.788;2023-03-13T19:49:37;101486.66;;;8.41;42.31
12213;BME280;6169;44.158;22.788;2023-03-13T19:54:41;101484.19;;;7.70;44.14
12213;BME280;6169;44.158;22.788;2023-03-13T19:59:43;101469.72;;;7.91;43.39
12213;BME280;6169;44.158;22.788;2023-03-13T20:04:46;101464.91;;;7.86;42.81
12213;BME280;6169;44.158;22.788;2023-03-13T20:09:49;101458.59;;;7.44;43.96
12213;BME280;6169;44.158;22.788;2023-03-13T20:14:52;101461.25;;;7.09;45.11
12213;BME280;6169;44.158;22.788;2023-03-13T20:19:55;101451.50;;;6.87;45.00
12213;BME280;6169;44.158;22.788;2023-03-13T20:24:58;101444.72;;;6.76;45.55
12213;BME280;6169;44.158;22.788;2023-03-13T20:30:01;101447.19;;;6.93;44.62
12213;BME280;6169;44.158;22.788;2023-03-13T20:35:04;101444.44;;;6.50;45.87
12213;BME280;6169;44.158;22.788;2023-03-13T20:40:14;101435.97;;;6.53;46.15
12213;BME280;6169;44.158;22.788;2023-03-13T20:45:16;101440.13;;;6.77;44.46
12213;BME280;6169;44.158;22.788;2023-03-13T20:50:18;101443.31;;;6.80;45.47
12213;BME280;6169;44.158;22.788;2023-03-13T20:55:22;101445.13;;;6.37;45.46
12213;BME280;6169;44.158;22.788;2023-03-13T21:00:24;101460.81;;;6.27;46.11
12213;BME280;6169;44.158;22.788;2023-03-13T21:05:26;101454.41;;;5.98;46.35
12213;BME280;6169;44.158;22.788;2023-03-13T21:10:30;101452.63;;;6.20;45.69
12213;BME280;6169;44.158;22.788;2023-03-13T21:15:32;101442.53;;;5.63;47.51
12213;BME280;6169;44.158;22.788;2023-03-13T21:20:36;101439.63;;;6.09;45.84
12213;BME280;6169;44.158;22.788;2023-03-13T21:25:41;101435.06;;;5.94;45.86
12213;BME280;6169;44.158;22.788;2023-03-13T21:30:43;101416.84;;;5.67;45.96
12213;BME280;6169;44.158;22.788;2023-03-13T21:35:45;101410.44;;;5.53;46.56
12213;BME280;6169;44.158;22.788;2023-03-13T21:40:49;101413.91;;;5.62;47.02
12213;BME280;6169;44.158;22.788;2023-03-13T21:45:51;101419.09;;;5.48;47.68
12213;BME280;6169;44.158;22.788;2023-03-13T21:50:53;101427.25;;;5.25;47.47
12213;BME280;6169;44.158;22.788;2023-03-13T21:55:57;101422.03;;;5.24;47.99
12213;BME280;6169;44.158;22.788;2023-03-13T22:00:59;101417.31;;;5.55;47.13
12213;BME280;6169;44.158;22.788;2023-03-13T22:06:01;101412.72;;;5.12;46.48
12213;BME280;6169;44.158;22.788;2023-03-13T22:11:05;101424.41;;;5.42;46.95
12213;BME280;6169;44.158;22.788;2023-03-13T22:16:08;101421.00;;;4.87;48.53
12213;BME280;6169;44.158;22.788;2023-03-13T22:21:11;101417.94;;;4.90;47.80
12213;BME280;6169;44.158;22.788;2023-03-13T22:26:16;101410.72;;;5.28;47.34
12213;BME280;6169;44.158;22.788;2023-03-13T22:31:18;101407.66;;;5.31;47.29
12213;BME280;6169;44.158;22.788;2023-03-13T22:36:20;101407.69;;;5.08;47.45
12213;BME280;6169;44.158;22.788;2023-03-13T22:41:24;101394.34;;;5.30;46.16
12213;BME280;6169;44.158;22.788;2023-03-13T22:46:26;101402.09;;;4.95;47.24
12213;BME280;6169;44.158;22.788;2023-03-13T22:51:28;101398.97;;;4.69;48.22
12213;BME280;6169;44.158;22.788;2023-03-13T22:56:32;101393.16;;;4.95;47.71
12213;BME280;6169;44.158;22.788;2023-03-13T23:01:34;101388.09;;;5.15;46.97
12213;BME280;6169;44.158;22.788;2023-03-13T23:06:36;101373.41;;;5.17;46.52
12213;BME280;6169;44.158;22.788;2023-03-13T23:11:40;101372.00;;;5.06;46.81
12213;BME280;6169;44.158;22.788;2023-03-13T23:16:42;101372.38;;;5.03;46.55
12213;BME280;6169;44.158;22.788;2023-03-13T23:21:44;101379.09;;;4.84;46.93
12213;BME280;6169;44.158;22.788;2023-03-13T23:26:48;101361.28;;;4.83;47.26
12213;BME280;6169;44.158;22.788;2023-03-13T23:31:50;101353.28;;;4.90;46.55
12213;BME280;6169;44.158;22.788;2023-03-13T23:36:52;101338.38;;;5.02;46.06
12213;BME280;6169;44.158;22.788;2023-03-13T23:41:56;101342.03;;;4.86;46.53
12213;BME280;6169;44.158;22.788;2023-03-13T23:46:58;101320.22;;;4.81;46.19
12213;BME280;6169;44.158;22.788;2023-03-13T23:52:01;101311.66;;;4.78;46.41
12213;BME280;6169;44.158;22.788;2023-03-13T23:57:04;101318.66;;;4.49;47.80
